sensor_id;sensor_type;location;lat;lon;timestamp;temperature;humidity
21493;DHT22;10908;50.690;4.400;2023-12-20T00:02:20;7.70;85.10
21493;DHT22;10908;50.690;4.400;2023-12-20T00:04:45;7.70;85.00
21493;DHT22;10908;50.690;4.400;2023-12-20T00:07:11;7.60;84.80
21493;DHT22;10908;50.690;4.400;2023-12-20T00:09:37;7.60;85.00
21493;DHT22;10908;50.690;4.400;2023-12-20T00:12:03;7.60;85.10
21493;DHT22;10908;50.690;4.400;2023-12-20T00:14:28;7.70;85.00
21493;DHT22;10908;50.690;4.400;2023-12-20T00:16:54;7.70;84.90
21493;DHT22;10908;50.690;4.400;2023-12-20T00:19:20;7.70;85.20
21493;DHT22;10908;50.690;4.400;2023-12-20T00:21:45;7.70;85.30
21493;DHT22;10908;50.690;4.400;2023-12-20T00:24:11;7.80;85.20
21493;DHT22;10908;50.690;4.400;2023-12-20T00:26:37;7.90;84.80
21493;DHT22;10908;50.690;4.400;2023-12-20T00:29:02;7.80;84.80
21493;DHT22;10908;50.690;4.400;2023-12-20T00:31:28;7.90;84.80
21493;DHT22;10908;50.690;4.400;2023-12-20T00:33:54;7.90;84.50
21493;DHT22;10908;50.690;4.400;2023-12-20T00:36:20;7.80;84.50
21493;DHT22;10908;50.690;4.400;2023-12-20T00:38:45;7.70;84.50
21493;DHT22;10908;50.690;4.400;2023-12-20T00:41:11;7.60;84.90
21493;DHT22;10908;50.690;4.400;2023-12-20T00:43:37;7.60;85.00
21493;DHT22;10908;50.690;4.400;2023-12-20T00:46:02;7.70;84.70
21493;DHT22;10908;50.690;4.400;2023-12-20T00:48:28;7.60;84.70
21493;DHT22;10908;50.690;4.400;2023-12-20T00:50:55;7.50;84.80
21493;DHT22;10908;50.690;4.400;2023-12-20T00:53:21;7.50;84.90
21493;DHT22;10908;50.690;4.400;2023-12-20T00:55:47;7.40;84.90
21493;DHT22;10908;50.690;4.400;2023-12-20T00:58:12;7.40;85.20
21493;DHT22;10908;50.690;4.400;2023-12-20T01:00:40;7.40;85.40
21493;DHT22;10908;50.690;4.400;2023-12-20T01:03:07;7.30;85.50
21493;DHT22;10908;50.690;4.400;2023-12-20T01:05:33;7.40;85.50
21493;DHT22;10908;50.690;4.400;2023-12-20T01:07:59;7.40;85.40
21493;DHT22;10908;50.690;4.400;2023-12-20T01:10:25;7.30;85.30
21493;DHT22;10908;50.690;4.400;2023-12-20T01:12:53;7.30;85.40
21493;DHT22;10908;50.690;4.400;2023-12-20T01:15:19;7.30;85.50
21493;DHT22;10908;50.690;4.400;2023-12-20T01:17:44;7.30;85.40
21493;DHT22;10908;50.690;4.400;2023-12-20T01:20:10;7.30;85.50
21493;DHT22;10908;50.690;4.400;2023-12-20T01:22:36;7.20;85.50
21493;DHT22;10908;50.690;4.400;2023-12-20T01:25:02;7.10;85.50
21493;DHT22;10908;50.690;4.400;2023-12-20T01:27:28;7.10;85.70
21493;DHT22;10908;50.690;4.400;2023-12-20T01:29:54;7.10;85.60
21493;DHT22;10908;50.690;4.400;2023-12-20T01:32:20;7.20;85.80
21493;DHT22;10908;50.690;4.400;2023-12-20T01:34:45;7.10;85.80
21493;DHT22;10908;50.690;4.400;2023-12-20T01:37:11;7.10;85.70
21493;DHT22;10908;50.690;4.400;2023-12-20T01:39:37;7.20;85.80
21493;DHT22;10908;50.690;4.400;2023-12-20T01:42:02;7.10;85.90
21493;DHT22;10908;50.690;4.400;2023-12-20T01:44:28;7.10;85.90
21493;DHT22;10908;50.690;4.400;2023-12-20T01:46:54;7.10;85.80
21493;DHT22;10908;50.690;4.400;2023-12-20T01:49:20;6.90;86.00
21493;DHT22;10908;50.690;4.400;2023-12-20T01:51:47;7.00;86.10
21493;DHT22;10908;50.690;4.400;2023-12-20T01:54:13;7.00;86.00
21493;DHT22;10908;50.690;4.400;2023-12-20T01:56:39;6.90;86.10
21493;DHT22;10908;50.690;4.400;2023-12-20T01:59:06;6.80;86.40
21493;DHT22;10908;50.690;4.400;2023-12-20T02:01:32;6.80;86.50
21493;DHT22;10908;50.690;4.400;2023-12-20T02:03:59;6.80;86.70
21493;DHT22;10908;50.690;4.400;2023-12-20T02:06:29;6.70;86.80
21493;DHT22;10908;50.690;4.400;2023-12-20T02:08:57;6.80;86.70
21493;DHT22;10908;50.690;4.400;2023-12-20T02:11:23;6.80;86.60
21493;DHT22;10908;50.690;4.400;2023-12-20T02:13:50;6.80;86.60
21493;DHT22;10908;50.690;4.400;2023-12-20T02:16:16;6.80;86.60
21493;DHT22;10908;50.690;4.400;2023-12-20T02:18:43;6.80;86.60
21493;DHT22;10908;50.690;4.400;2023-12-20T02:21:09;6.70;86.50
21493;DHT22;10908;50.690;4.400;2023-12-20T02:23:35;6.70;86.80
21493;DHT22;10908;50.690;4.400;2023-12-20T02:26:01;6.80;86.80
21493;DHT22;10908;50.690;4.400;2023-12-20T02:28:27;6.70;86.90
21493;DHT22;10908;50.690;4.400;2023-12-20T02:30:53;6.70;86.90
21493;DHT22;10908;50.690;4.400;2023-12-20T02:33:19;6.70;87.00
21493;DHT22;10908;50.690;4.400;2023-12-20T02:35:44;6.70;87.00
21493;DHT22;10908;50.690;4.400;2023-12-20T02:38:10;6.70;86.90
21493;DHT22;10908;50.690;4.400;2023-12-20T02:40:36;6.60;87.10
21493;DHT22;10908;50.690;4.400;2023-12-20T02:43:02;6.70;87.30
21493;DHT22;10908;50.690;4.400;2023-12-20T02:45:27;6.70;87.30
21493;DHT22;10908;50.690;4.400;2023-12-20T02:47:53;6.80;87.30
21493;DHT22;10908;50.690;4.400;2023-12-20T02:50:19;6.80;87.00
21493;DHT22;10908;50.690;4.400;2023-12-20T02:52:45;6.80;87.10
21493;DHT22;10908;50.690;4.400;2023-12-20T02:55:11;6.70;87.00
21493;DHT22;10908;50.690;4.400;2023-12-20T02:57:37;6.70;86.90
21493;DHT22;10908;50.690;4.400;2023-12-20T03:00:08;6.80;87.00
21493;DHT22;10908;50.690;4.400;2023-12-20T03:02:34;6.70;86.70
21493;DHT22;10908;50.690;4.400;2023-12-20T03:05:00;6.60;86.70
21493;DHT22;10908;50.690;4.400;2023-12-20T03:07:26;6.70;86.80
21493;DHT22;10908;50.690;4.400;2023-12-20T03:09:52;6.70;86.90
21493;DHT22;10908;50.690;4.400;2023-12-20T03:12:17;6.60;86.70
21493;DHT22;10908;50.690;4.400;2023-12-20T03:14:44;6.70;86.70
21493;DHT22;10908;50.690;4.400;2023-12-20T03:17:10;6.80;86.50
21493;DHT22;10908;50.690;4.400;2023-12-20T03:19:35;6.80;86.50
21493;DHT22;10908;50.690;4.400;2023-12-20T03:22:01;6.80;86.30
21493;DHT22;10908;50.690;4.400;2023-12-20T03:24:27;6.80;86.20
21493;DHT22;10908;50.690;4.400;2023-12-20T03:26:53;6.80;86.20
21493;DHT22;10908;50.690;4.400;2023-12-20T03:29:19;6.80;86.20
21493;DHT22;10908;50.690;4.400;2023-12-20T03:31:44;6.80;86.20
21493;DHT22;10908;50.690;4.400;2023-12-20T03:34:11;6.90;86.20
21493;DHT22;10908;50.690;4.400;2023-12-20T03:36:37;6.90;86.10
21493;DHT22;10908;50.690;4.400;2023-12-20T03:39:03;6.90;86.10
21493;DHT22;10908;50.690;4.400;2023-12-20T03:41:28;6.90;86.20
21493;DHT22;10908;50.690;4.400;2023-12-20T03:43:54;6.90;86.10
21493;DHT22;10908;50.690;4.400;2023-12-20T03:46:20;6.90;86.20
21493;DHT22;10908;50.690;4.400;2023-12-20T03:48:45;6.90;86.20
21493;DHT22;10908;50.690;4.400;2023-12-20T03:51:11;6.90;86.00
21493;DHT22;10908;50.690;4.400;2023-12-20T03:53:37;6.90;85.90
21493;DHT22;10908;50.690;4.400;2023-12-20T03:56:03;6.90;85.70
21493;DHT22;10908;50.690;4.400;2023-12-20T03:58:29;6.90;85.90
21493;DHT22;10908;50.690;4.400;2023-12-20T04:00:54;7.00;85.80
21493;DHT22;10908;50.690;4.400;2023-12-20T04:03:20;6.90;85.70
21493;DHT22;10908;50.690;4.400;2023-12-20T04:05:46;6.90;85.70
21493;DHT22;10908;50.690;4.400;2023-12-20T04:08:11;6.80;85.70
21493;DHT22;10908;50.690;4.400;2023-12-20T04:10:37;6.80;86.00
21493;DHT22;10908;50.690;4.400;2023-12-20T04:13:04;6.80;86.20
21493;DHT22;10908;50.690;4.400;2023-12-20T04:15:30;6.90;86.10
21493;DHT22;10908;50.690;4.400;2023-12-20T04:17:55;6.90;86.00
21493;DHT22;10908;50.690;4.400;2023-12-20T04:20:21;6.90;86.10
21493;DHT22;10908;50.690;4.400;2023-12-20T04:22:47;6.90;86.00
21493;DHT22;10908;50.690;4.400;2023-12-20T04:25:12;6.90;86.00
21493;DHT22;10908;50.690;4.400;2023-12-20T04:27:38;6.90;86.00
21493;DHT22;10908;50.690;4.400;2023-12-20T04:30:04;6.90;86.10
21493;DHT22;10908;50.690;4.400;2023-12-20T04:32:30;6.80;86.30
21493;DHT22;10908;50.690;4.400;2023-12-20T04:34:56;6.80;86.30
21493;DHT22;10908;50.690;4.400;2023-12-20T04:37:22;6.90;86.30
21493;DHT22;10908;50.690;4.400;2023-12-20T04:39:48;6.80;86.10
21493;DHT22;10908;50.690;4.400;2023-12-20T04:42:13;6.80;86.30
21493;DHT22;10908;50.690;4.400;2023-12-20T04:44:39;6.80;86.40
21493;DHT22;10908;50.690;4.400;2023-12-20T04:47:05;6.80;86.50
21493;DHT22;10908;50.690;4.400;2023-12-20T04:49:30;6.80;86.60
21493;DHT22;10908;50.690;4.400;2023-12-20T04:51:56;6.90;86.40
21493;DHT22;10908;50.690;4.400;2023-12-20T04:54:22;6.90;86.30
21493;DHT22;10908;50.690;4.400;2023-12-20T04:56:47;6.80;86.10
21493;DHT22;10908;50.690;4.400;2023-12-20T04:59:13;6.90;86.30
21493;DHT22;10908;50.690;4.400;2023-12-20T05:01:39;6.90;86.00
21493;DHT22;10908;50.690;4.400;2023-12-20T05:04:04;6.90;85.90
21493;DHT22;10908;50.690;4.400;2023-12-20T05:06:30;7.00;85.70
21493;DHT22;10908;50.690;4.400;2023-12-20T05:08:56;7.00;85.50
21493;DHT22;10908;50.690;4.400;2023-12-20T05:11:21;6.90;85.60
21493;DHT22;10908;50.690;4.400;2023-12-20T05:13:47;7.00;85.70
21493;DHT22;10908;50.690;4.400;2023-12-20T05:16:13;6.90;85.70
21493;DHT22;10908;50.690;4.400;2023-12-20T05:18:40;6.90;85.90
21493;DHT22;10908;50.690;4.400;2023-12-20T05:21:05;6.90;85.80
21493;DHT22;10908;50.690;4.400;2023-12-20T05:23:31;6.90;85.70
21493;DHT22;10908;50.690;4.400;2023-12-20T05:25:56;6.80;85.90
21493;DHT22;10908;50.690;4.400;2023-12-20T05:28:22;6.80;85.90
21493;DHT22;10908;50.690;4.400;2023-12-20T05:30:48;6.70;86.00
21493;DHT22;10908;50.690;4.400;2023-12-20T05:33:14;6.80;86.00
21493;DHT22;10908;50.690;4.400;2023-12-20T05:35:39;6.80;86.10
21493;DHT22;10908;50.690;4.400;2023-12-20T05:38:05;6.60;85.80
21493;DHT22;10908;50.690;4.400;2023-12-20T05:40:31;6.50;86.10
21493;DHT22;10908;50.690;4.400;2023-12-20T05:42:57;6.60;86.30
21493;DHT22;10908;50.690;4.400;2023-12-20T05:45:22;6.50;86.30
21493;DHT22;10908;50.690;4.400;2023-12-20T05:47:48;6.50;86.20
21493;DHT22;10908;50.690;4.400;2023-12-20T05:50:14;6.60;86.10
21493;DHT22;10908;50.690;4.400;2023-12-20T05:52:39;6.50;86.10
21493;DHT22;10908;50.690;4.400;2023-12-20T05:55:05;6.40;86.00
21493;DHT22;10908;50.690;4.400;2023-12-20T05:57:31;6.40;86.10
21493;DHT22;10908;50.690;4.400;2023-12-20T05:59:56;6.40;86.00
21493;DHT22;10908;50.690;4.400;2023-12-20T06:02:22;6.30;86.20
21493;DHT22;10908;50.690;4.400;2023-12-20T06:04:48;6.20;86.10
21493;DHT22;10908;50.690;4.400;2023-12-20T06:07:14;6.30;86.30
21493;DHT22;10908;50.690;4.400;2023-12-20T06:09:40;6.20;86.20
21493;DHT22;10908;50.690;4.400;2023-12-20T06:12:07;6.10;86.40
21493;DHT22;10908;50.690;4.400;2023-12-20T06:14:34;6.30;86.30
21493;DHT22;10908;50.690;4.400;2023-12-20T06:17:00;6.30;86.30
21493;DHT22;10908;50.690;4.400;2023-12-20T06:19:26;6.30;86.30
21493;DHT22;10908;50.690;4.400;2023-12-20T06:21:52;6.30;86.20
21493;DHT22;10908;50.690;4.400;2023-12-20T06:24:18;6.30;86.00
21493;DHT22;10908;50.690;4.400;2023-12-20T06:26:43;6.30;85.90
21493;DHT22;10908;50.690;4.400;2023-12-20T06:29:09;6.30;85.90
21493;DHT22;10908;50.690;4.400;2023-12-20T06:31:35;6.40;85.80
21493;DHT22;10908;50.690;4.400;2023-12-20T06:34:01;6.40;85.70
21493;DHT22;10908;50.690;4.400;2023-12-20T06:36:27;6.30;85.80
21493;DHT22;10908;50.690;4.400;2023-12-20T06:38:53;6.30;85.80
21493;DHT22;10908;50.690;4.400;2023-12-20T06:41:18;6.40;85.70
21493;DHT22;10908;50.690;4.400;2023-12-20T06:43:44;6.30;85.60
21493;DHT22;10908;50.690;4.400;2023-12-20T06:46:10;6.40;85.70
21493;DHT22;10908;50.690;4.400;2023-12-20T06:48:36;6.40;85.80
21493;DHT22;10908;50.690;4.400;2023-12-20T06:51:01;6.50;85.70
21493;DHT22;10908;50.690;4.400;2023-12-20T06:53:27;6.50;85.60
21493;DHT22;10908;50.690;4.400;2023-12-20T06:55:53;6.40;85.40
21493;DHT22;10908;50.690;4.400;2023-12-20T06:58:21;6.20;85.30
21493;DHT22;10908;50.690;4.400;2023-12-20T07:00:47;6.10;85.80
21493;DHT22;10908;50.690;4.400;2023-12-20T07:03:13;6.10;85.80
21493;DHT22;10908;50.690;4.400;2023-12-20T07:05:38;6.20;85.90
21493;DHT22;10908;50.690;4.400;2023-12-20T07:08:04;6.10;85.80
21493;DHT22;10908;50.690;4.400;2023-12-20T07:10:30;6.00;86.00
21493;DHT22;10908;50.690;4.400;2023-12-20T07:12:56;6.00;86.10
21493;DHT22;10908;50.690;4.400;2023-12-20T07:15:22;5.90;86.00
21493;DHT22;10908;50.690;4.400;2023-12-20T07:17:48;6.00;86.30
21493;DHT22;10908;50.690;4.400;2023-12-20T07:20:14;5.90;86.30
21493;DHT22;10908;50.690;4.400;2023-12-20T07:22:39;5.90;86.20
21493;DHT22;10908;50.690;4.400;2023-12-20T07:25:06;5.90;86.40
21493;DHT22;10908;50.690;4.400;2023-12-20T07:27:32;5.90;86.20
21493;DHT22;10908;50.690;4.400;2023-12-20T07:29:58;5.90;86.30
21493;DHT22;10908;50.690;4.400;2023-12-20T07:32:23;5.90;86.20
21493;DHT22;10908;50.690;4.400;2023-12-20T07:34:49;5.90;86.10
21493;DHT22;10908;50.690;4.400;2023-12-20T07:37:15;5.90;86.20
21493;DHT22;10908;50.690;4.400;2023-12-20T07:39:41;5.90;86.20
21493;DHT22;10908;50.690;4.400;2023-12-20T07:42:07;5.90;86.30
21493;DHT22;10908;50.690;4.400;2023-12-20T07:44:33;5.90;86.20
21493;DHT22;10908;50.690;4.400;2023-12-20T07:46:59;5.90;86.10
21493;DHT22;10908;50.690;4.400;2023-12-20T07:49:26;5.90;86.00
21493;DHT22;10908;50.690;4.400;2023-12-20T07:51:52;6.00;86.00
21493;DHT22;10908;50.690;4.400;2023-12-20T07:54:17;5.90;86.00
21493;DHT22;10908;50.690;4.400;2023-12-20T07:56:43;6.00;86.00
21493;DHT22;10908;50.690;4.400;2023-12-20T07:59:09;5.90;85.90
21493;DHT22;10908;50.690;4.400;2023-12-20T08:01:35;5.90;86.00
21493;DHT22;10908;50.690;4.400;2023-12-20T08:04:00;5.90;86.00
21493;DHT22;10908;50.690;4.400;2023-12-20T08:06:26;6.00;86.10
21493;DHT22;10908;50.690;4.400;2023-12-20T08:08:52;6.00;85.90
21493;DHT22;10908;50.690;4.400;2023-12-20T08:11:17;6.00;85.80
21493;DHT22;10908;50.690;4.400;2023-12-20T08:13:43;6.00;85.70
21493;DHT22;10908;50.690;4.400;2023-12-20T08:16:09;6.00;85.70
21493;DHT22;10908;50.690;4.400;2023-12-20T08:18:34;6.00;85.80
21493;DHT22;10908;50.690;4.400;2023-12-20T08:21:00;6.10;85.90
21493;DHT22;10908;50.690;4.400;2023-12-20T08:23:27;6.10;85.70
21493;DHT22;10908;50.690;4.400;2023-12-20T08:25:52;6.00;85.80
21493;DHT22;10908;50.690;4.400;2023-12-20T08:28:18;6.10;85.90
21493;DHT22;10908;50.690;4.400;2023-12-20T08:30:43;6.10;85.90
21493;DHT22;10908;50.690;4.400;2023-12-20T08:33:09;6.20;86.00
21493;DHT22;10908;50.690;4.400;2023-12-20T08:35:41;6.10;85.80
21493;DHT22;10908;50.690;4.400;2023-12-20T08:38:07;6.10;85.90
21493;DHT22;10908;50.690;4.400;2023-12-20T08:40:32;6.10;85.90
21493;DHT22;10908;50.690;4.400;2023-12-20T08:42:58;6.20;85.90
21493;DHT22;10908;50.690;4.400;2023-12-20T08:45:24;6.20;85.60
21493;DHT22;10908;50.690;4.400;2023-12-20T08:47:50;6.20;85.60
21493;DHT22;10908;50.690;4.400;2023-12-20T08:50:15;6.20;85.80
21493;DHT22;10908;50.690;4.400;2023-12-20T08:52:41;6.30;85.60
21493;DHT22;10908;50.690;4.400;2023-12-20T08:55:07;6.30;85.60
21493;DHT22;10908;50.690;4.400;2023-12-20T08:57:33;6.20;85.80
21493;DHT22;10908;50.690;4.400;2023-12-20T08:59:59;6.20;85.70
21493;DHT22;10908;50.690;4.400;2023-12-20T09:02:25;6.20;86.00
21493;DHT22;10908;50.690;4.400;2023-12-20T09:04:50;6.40;86.10
21493;DHT22;10908;50.690;4.400;2023-12-20T09:07:22;6.30;86.00
21493;DHT22;10908;50.690;4.400;2023-12-20T09:09:48;6.30;86.10
21493;DHT22;10908;50.690;4.400;2023-12-20T09:12:14;6.30;86.20
21493;DHT22;10908;50.690;4.400;2023-12-20T09:14:39;6.40;86.30
21493;DHT22;10908;50.690;4.400;2023-12-20T09:17:06;6.40;86.30
21493;DHT22;10908;50.690;4.400;2023-12-20T09:19:34;6.50;85.90
21493;DHT22;10908;50.690;4.400;2023-12-20T09:22:00;6.60;85.90
21493;DHT22;10908;50.690;4.400;2023-12-20T09:24:26;6.60;85.50
21493;DHT22;10908;50.690;4.400;2023-12-20T09:26:52;6.70;85.50
21493;DHT22;10908;50.690;4.400;2023-12-20T09:29:18;6.60;85.50
21493;DHT22;10908;50.690;4.400;2023-12-20T09:31:44;6.70;85.50
21493;DHT22;10908;50.690;4.400;2023-12-20T09:34:11;6.70;85.40
21493;DHT22;10908;50.690;4.400;2023-12-20T09:36:37;6.80;85.20
21493;DHT22;10908;50.690;4.400;2023-12-20T09:39:06;6.80;85.30
21493;DHT22;10908;50.690;4.400;2023-12-20T09:41:36;6.80;85.20
21493;DHT22;10908;50.690;4.400;2023-12-20T09:44:03;6.90;85.10
21493;DHT22;10908;50.690;4.400;2023-12-20T09:46:29;6.90;85.00
21493;DHT22;10908;50.690;4.400;2023-12-20T09:48:59;6.90;84.80
21493;DHT22;10908;50.690;4.400;2023-12-20T09:51:28;7.00;84.80
21493;DHT22;10908;50.690;4.400;2023-12-20T09:53:54;7.10;84.60
21493;DHT22;10908;50.690;4.400;2023-12-20T09:56:22;7.10;84.50
21493;DHT22;10908;50.690;4.400;2023-12-20T09:58:48;7.10;84.40
21493;DHT22;10908;50.690;4.400;2023-12-20T10:01:15;7.10;84.40
21493;DHT22;10908;50.690;4.400;2023-12-20T10:03:41;7.20;84.20
21493;DHT22;10908;50.690;4.400;2023-12-20T10:06:08;7.20;84.20
21493;DHT22;10908;50.690;4.400;2023-12-20T10:08:34;7.20;84.30
21493;DHT22;10908;50.690;4.400;2023-12-20T10:10:59;7.40;84.40
21493;DHT22;10908;50.690;4.400;2023-12-20T10:13:28;7.30;84.20
21493;DHT22;10908;50.690;4.400;2023-12-20T10:15:55;7.40;84.10
21493;DHT22;10908;50.690;4.400;2023-12-20T10:18:21;7.50;84.10
21493;DHT22;10908;50.690;4.400;2023-12-20T10:20:46;7.50;83.90
21493;DHT22;10908;50.690;4.400;2023-12-20T10:23:13;7.60;83.90
21493;DHT22;10908;50.690;4.400;2023-12-20T10:25:39;7.60;83.70
21493;DHT22;10908;50.690;4.400;2023-12-20T10:28:16;7.50;83.70
21493;DHT22;10908;50.690;4.400;2023-12-20T10:30:44;7.50;83.80
21493;DHT22;10908;50.690;4.400;2023-12-20T10:33:10;7.60;84.00
21493;DHT22;10908;50.690;4.400;2023-12-20T10:35:37;7.60;83.90
21493;DHT22;10908;50.690;4.400;2023-12-20T10:38:04;7.50;83.70
21493;DHT22;10908;50.690;4.400;2023-12-20T10:40:31;7.60;84.00
21493;DHT22;10908;50.690;4.400;2023-12-20T10:42:58;7.60;84.10
21493;DHT22;10908;50.690;4.400;2023-12-20T10:45:25;7.70;84.30
21493;DHT22;10908;50.690;4.400;2023-12-20T10:47:51;7.70;83.90
21493;DHT22;10908;50.690;4.400;2023-12-20T10:50:19;7.70;83.90
21493;DHT22;10908;50.690;4.400;2023-12-20T10:52:46;7.70;84.00
21493;DHT22;10908;50.690;4.400;2023-12-20T10:55:12;7.70;83.80
21493;DHT22;10908;50.690;4.400;2023-12-20T10:57:38;7.70;84.10
21493;DHT22;10908;50.690;4.400;2023-12-20T11:00:06;7.70;84.20
21493;DHT22;10908;50.690;4.400;2023-12-20T11:02:38;7.70;84.50
21493;DHT22;10908;50.690;4.400;2023-12-20T11:05:24;7.80;84.30
21493;DHT22;10908;50.690;4.400;2023-12-20T11:07:57;7.70;84.10
21493;DHT22;10908;50.690;4.400;2023-12-20T11:10:59;7.80;84.50
21493;DHT22;10908;50.690;4.400;2023-12-20T11:13:26;7.80;84.50
21493;DHT22;10908;50.690;4.400;2023-12-20T11:15:54;7.80;84.30
21493;DHT22;10908;50.690;4.400;2023-12-20T11:18:20;7.90;84.10
21493;DHT22;10908;50.690;4.400;2023-12-20T11:20:45;7.90;84.20
21493;DHT22;10908;50.690;4.400;2023-12-20T11:23:11;7.90;84.20
21493;DHT22;10908;50.690;4.400;2023-12-20T11:25:47;8.00;84.10
21493;DHT22;10908;50.690;4.400;2023-12-20T11:28:14;8.00;84.30
21493;DHT22;10908;50.690;4.400;2023-12-20T11:30:46;8.00;84.10
21493;DHT22;10908;50.690;4.400;2023-12-20T11:33:15;8.00;84.20
21493;DHT22;10908;50.690;4.400;2023-12-20T11:35:42;8.00;84.10
21493;DHT22;10908;50.690;4.400;2023-12-20T11:38:11;8.10;84.30
21493;DHT22;10908;50.690;4.400;2023-12-20T11:40:37;8.20;84.10
21493;DHT22;10908;50.690;4.400;2023-12-20T11:43:03;8.10;83.80
21493;DHT22;10908;50.690;4.400;2023-12-20T11:45:32;8.10;84.10
21493;DHT22;10908;50.690;4.400;2023-12-20T11:47:58;8.10;84.10
21493;DHT22;10908;50.690;4.400;2023-12-20T11:50:25;8.20;84.10
21493;DHT22;10908;50.690;4.400;2023-12-20T11:52:52;8.20;84.10
21493;DHT22;10908;50.690;4.400;2023-12-20T11:55:18;8.30;84.00
21493;DHT22;10908;50.690;4.400;2023-12-20T11:57:44;8.20;84.20
21493;DHT22;10908;50.690;4.400;2023-12-20T12:00:13;8.20;84.10
21493;DHT22;10908;50.690;4.400;2023-12-20T12:02:39;8.30;84.00
21493;DHT22;10908;50.690;4.400;2023-12-20T12:05:07;8.30;84.00
21493;DHT22;10908;50.690;4.400;2023-12-20T12:07:34;8.30;84.50
21493;DHT22;10908;50.690;4.400;2023-12-20T12:10:00;8.30;85.00
21493;DHT22;10908;50.690;4.400;2023-12-20T12:12:26;8.10;85.10
21493;DHT22;10908;50.690;4.400;2023-12-20T12:14:53;8.20;85.20
21493;DHT22;10908;50.690;4.400;2023-12-20T12:17:20;8.20;85.30
21493;DHT22;10908;50.690;4.400;2023-12-20T12:19:45;8.20;85.40
21493;DHT22;10908;50.690;4.400;2023-12-20T12:22:15;8.30;85.40
21493;DHT22;10908;50.690;4.400;2023-12-20T12:24:46;8.20;85.40
21493;DHT22;10908;50.690;4.400;2023-12-20T12:27:13;8.20;85.60
21493;DHT22;10908;50.690;4.400;2023-12-20T12:29:39;8.30;85.70
21493;DHT22;10908;50.690;4.400;2023-12-20T12:32:09;8.30;85.70
21493;DHT22;10908;50.690;4.400;2023-12-20T12:34:35;8.30;86.30
21493;DHT22;10908;50.690;4.400;2023-12-20T12:37:01;8.40;87.20
21493;DHT22;10908;50.690;4.400;2023-12-20T12:39:27;8.40;87.50
21493;DHT22;10908;50.690;4.400;2023-12-20T12:41:56;8.40;87.70
21493;DHT22;10908;50.690;4.400;2023-12-20T12:44:22;8.40;87.70
21493;DHT22;10908;50.690;4.400;2023-12-20T12:46:50;8.40;88.10
21493;DHT22;10908;50.690;4.400;2023-12-20T12:49:17;8.40;88.00
21493;DHT22;10908;50.690;4.400;2023-12-20T12:51:43;8.40;88.30
21493;DHT22;10908;50.690;4.400;2023-12-20T12:54:09;8.40;88.20
21493;DHT22;10908;50.690;4.400;2023-12-20T12:56:36;8.40;88.50
21493;DHT22;10908;50.690;4.400;2023-12-20T12:59:02;8.50;88.60
21493;DHT22;10908;50.690;4.400;2023-12-20T13:01:28;8.50;88.70
21493;DHT22;10908;50.690;4.400;2023-12-20T13:03:53;8.60;88.70
21493;DHT22;10908;50.690;4.400;2023-12-20T13:06:20;8.60;88.80
21493;DHT22;10908;50.690;4.400;2023-12-20T13:08:45;8.70;88.70
21493;DHT22;10908;50.690;4.400;2023-12-20T13:11:11;8.70;88.50
21493;DHT22;10908;50.690;4.400;2023-12-20T13:13:37;8.80;88.30
21493;DHT22;10908;50.690;4.400;2023-12-20T13:16:03;8.70;88.10
21493;DHT22;10908;50.690;4.400;2023-12-20T13:18:30;8.80;88.00
21493;DHT22;10908;50.690;4.400;2023-12-20T13:20:55;8.60;87.80
21493;DHT22;10908;50.690;4.400;2023-12-20T13:23:21;8.60;87.60
21493;DHT22;10908;50.690;4.400;2023-12-20T13:25:47;8.60;87.70
21493;DHT22;10908;50.690;4.400;2023-12-20T13:28:12;8.60;87.60
21493;DHT22;10908;50.690;4.400;2023-12-20T13:30:39;8.60;87.80
21493;DHT22;10908;50.690;4.400;2023-12-20T13:33:06;8.60;88.00
21493;DHT22;10908;50.690;4.400;2023-12-20T13:35:32;8.60;88.00
21493;DHT22;10908;50.690;4.400;2023-12-20T13:37:59;8.60;88.10
21493;DHT22;10908;50.690;4.400;2023-12-20T13:40:25;8.60;88.10
21493;DHT22;10908;50.690;4.400;2023-12-20T13:42:51;8.60;87.80
21493;DHT22;10908;50.690;4.400;2023-12-20T13:45:17;8.60;87.80
21493;DHT22;10908;50.690;4.400;2023-12-20T13:47:42;8.70;87.80
21493;DHT22;10908;50.690;4.400;2023-12-20T13:50:08;8.80;87.70
21493;DHT22;10908;50.690;4.400;2023-12-20T13:52:35;8.80;87.60
21493;DHT22;10908;50.690;4.400;2023-12-20T13:55:01;8.80;87.40
21493;DHT22;10908;50.690;4.400;2023-12-20T13:57:27;8.80;87.30
21493;DHT22;10908;50.690;4.400;2023-12-20T13:59:55;8.80;87.40
21493;DHT22;10908;50.690;4.400;2023-12-20T14:02:23;8.70;87.40
21493;DHT22;10908;50.690;4.400;2023-12-20T14:04:49;8.80;87.50
21493;DHT22;10908;50.690;4.400;2023-12-20T14:07:14;8.80;87.30
21493;DHT22;10908;50.690;4.400;2023-12-20T14:09:41;8.80;87.30
21493;DHT22;10908;50.690;4.400;2023-12-20T14:12:11;8.90;87.30
21493;DHT22;10908;50.690;4.400;2023-12-20T14:14:37;8.90;87.30
21493;DHT22;10908;50.690;4.400;2023-12-20T14:17:03;8.90;87.00
21493;DHT22;10908;50.690;4.400;2023-12-20T14:19:29;8.90;87.10
21493;DHT22;10908;50.690;4.400;2023-12-20T14:21:55;8.80;87.00
21493;DHT22;10908;50.690;4.400;2023-12-20T14:24:21;8.90;87.10
21493;DHT22;10908;50.690;4.400;2023-12-20T14:26:47;8.90;87.20
21493;DHT22;10908;50.690;4.400;2023-12-20T14:29:12;9.00;87.00
21493;DHT22;10908;50.690;4.400;2023-12-20T14:31:38;9.00;86.70
21493;DHT22;10908;50.690;4.400;2023-12-20T14:34:04;9.00;86.60
21493;DHT22;10908;50.690;4.400;2023-12-20T14:36:30;8.90;86.80
21493;DHT22;10908;50.690;4.400;2023-12-20T14:38:58;9.00;86.80
21493;DHT22;10908;50.690;4.400;2023-12-20T14:41:25;9.00;86.70
21493;DHT22;10908;50.690;4.400;2023-12-20T14:43:51;9.00;86.70
21493;DHT22;10908;50.690;4.400;2023-12-20T14:46:19;8.90;86.70
21493;DHT22;10908;50.690;4.400;2023-12-20T14:48:45;8.90;86.70
21493;DHT22;10908;50.690;4.400;2023-12-20T14:51:11;9.00;86.60
21493;DHT22;10908;50.690;4.400;2023-12-20T14:53:39;9.00;86.70
21493;DHT22;10908;50.690;4.400;2023-12-20T14:56:05;9.00;86.60
21493;DHT22;10908;50.690;4.400;2023-12-20T14:58:31;9.00;86.50
21493;DHT22;10908;50.690;4.400;2023-12-20T15:00:58;9.00;86.40
21493;DHT22;10908;50.690;4.400;2023-12-20T15:03:24;9.00;86.20
21493;DHT22;10908;50.690;4.400;2023-12-20T15:05:50;9.00;86.10
21493;DHT22;10908;50.690;4.400;2023-12-20T15:08:15;9.00;86.20
21493;DHT22;10908;50.690;4.400;2023-12-20T15:10:41;8.90;86.40
21493;DHT22;10908;50.690;4.400;2023-12-20T15:13:07;9.00;86.30
21493;DHT22;10908;50.690;4.400;2023-12-20T15:15:33;9.00;86.30
21493;DHT22;10908;50.690;4.400;2023-12-20T15:18:02;9.00;86.30
21493;DHT22;10908;50.690;4.400;2023-12-20T15:20:49;9.10;86.40
21493;DHT22;10908;50.690;4.400;2023-12-20T15:23:15;9.00;86.30
21493;DHT22;10908;50.690;4.400;2023-12-20T15:25:42;9.10;86.30
21493;DHT22;10908;50.690;4.400;2023-12-20T15:28:07;9.10;86.00
21493;DHT22;10908;50.690;4.400;2023-12-20T15:30:33;9.10;86.20
21493;DHT22;10908;50.690;4.400;2023-12-20T15:33:33;9.10;86.10
21493;DHT22;10908;50.690;4.400;2023-12-20T15:35:58;9.20;86.20
21493;DHT22;10908;50.690;4.400;2023-12-20T15:38:24;9.10;86.00
21493;DHT22;10908;50.690;4.400;2023-12-20T15:43:13;9.10;86.30